Date,TemperatureHighF,TemperatureAvgF,TemperatureLowF,DewpointHighF,DewpointAvgF,DewpointLowF,HumidityHigh,HumidityAvg,HumidityLow,PressureMaxIn,PressureMinIn,WindSpeedMaxMPH,WindSpeedAvgMPH,GustSpeedMaxMPH,PrecipitationSumIn
2013-6-1,88,84,76,64,62,59,65,47,40,30.03,29.90,16,1,16,0.00
2013-6-2,81,77,72,64,59,55,72,54,43,29.89,29.85,18,2,18,0.00
2013-6-3,68,63,52,58,54,49,90,71,61,30.06,29.94,13,2,13,0.00
2013-6-4,71,58,41,50,45,40,97,65,39,30.16,30.06,14,1,14,0.00
2013-6-5,78,72,58,56,53,47,69,51,43,30.15,30.00,15,3,15,0.00
2013-6-6,62,61,60,61,59,58,100,95,89,29.93,29.84,14,1,14,0.00
2013-6-7,69,65,62,66,64,62,100,96,87,29.81,29.74,11,0,12,0.00
2013-6-8,69,64,56,58,55,52,96,75,60,30.16,29.97,10,0,10,0.00
2013-6-9,81,75,54,64,60,54,100,60,48,30.19,30.08,13,2,13,0.00
2013-6-10,77,69,63,69,65,61,100,87,66,29.99,29.80,18,1,18,0.00
2013-6-11,74,70,64,66,63,60,100,81,63,29.93,29.83,14,2,14,0.00
2013-6-12,81,76,69,68,64,59,88,66,50,29.93,29.83,12,1,12,0.00
2013-6-13,72,66,60,64,59,54,90,78,70,29.74,29.58,21,5,21,0.00
2013-6-14,74,69,61,57,55,52,76,60,50,30.01,29.89,16,2,16,0.00
2013-6-15,76,72,63,54,47,40,67,43,29,30.12,30.02,14,1,14,0.00
2013-6-16,72,69,60,67,64,60,100,84,67,29.98,29.90,18,1,18,0.00
2013-6-17,82,77,66,68,59,53,100,57,41,30.00,29.92,11,1,11,0.00
2013-6-18,77,71,63,65,62,60,98,74,60,29.96,29.87,12,0,12,0.00
2013-6-19,76,72,63,53,49,46,66,45,35,30.14,30.07,11,1,11,0.00
2013-6-20,83,76,65,59,56,52,72,52,36,30.27,30.20,12,1,12,0.00
2013-6-21,85,79,65,62,57,50,86,48,35,30.31,30.19,16,0,16,0.00
2013-6-22,88,82,71,65,62,59,82,54,39,30.27,30.12,11,0,11,0.00
2013-6-23,90,83,69,66,63,60,88,53,38,30.22,30.08,12,0,12,0.00
2013-6-24,88,84,73,66,64,60,78,52,41,30.20,30.06,11,1,13,0.00
2013-6-25,88,81,66,66,64,59,99,58,44,30.10,29.93,19,3,22,0.00
2013-6-26,80,77,70,69,66,64,95,71,59,29.95,29.86,12,0,12,0.00
2013-6-27,72,70,68,71,69,66,100,96,87,29.79,29.63,10,0,11,0.00
2013-6-28,77,70,61,68,64,58,100,81,65,29.64,29.55,14,0,14,0.00
2013-6-29,79,75,71,64,61,58,77,62,49,29.70,29.62,14,1,14,0.00
2013-6-30,83,74,68,71,64,61,92,74,49,29.88,29.81,16,0,16,0.00